Time;durP1;ratioP1;P1;durP2;ratioP2;P2;SDS_P1;SDS_P2;PMS_P1;PMS_P2;Temp;Humidity;BMP_temperature;BMP_pressure;BME280_temperature;BME280_humidity;BME280_pressure;Samples;Min_cycle;Max_cycle;Signal;HPM_P1;HPM_P2
2021/08/15 00:03:22;;;;;;;3.40;0.88;;;20.80;89.10;;;;;;10356701;28;20072;-61
2021/08/15 00:08:24;;;;;;;4.15;0.90;;;20.80;88.70;;;;;;10360216;28;20188;-61
2021/08/15 00:13:25;;;;;;;5.13;1.27;;;20.90;89.30;;;;;;10364604;28;20057;-62
2021/08/15 00:18:27;;;;;;;5.18;0.80;;;20.80;88.80;;;;;;10369411;28;20057;-62
2021/08/15 00:23:29;;;;;;;7.22;1.67;;;20.80;88.70;;;;;;10364499;28;20861;-61
2021/08/15 00:28:30;;;;;;;9.45;1.35;;;20.80;89.40;;;;;;10360428;28;20061;-61
2021/08/15 00:33:33;;;;;;;4.28;0.75;;;20.70;89.70;;;;;;10361042;28;20038;-61
2021/08/15 00:38:34;;;;;;;2.55;1.00;;;20.60;90.20;;;;;;10363923;28;20914;-62
2021/08/15 00:43:36;;;;;;;5.13;0.90;;;20.50;90.30;;;;;;10360878;28;20472;-61
2021/08/15 00:48:39;;;;;;;2.58;0.88;;;20.40;90.70;;;;;;10358930;28;20108;-61
2021/08/15 00:53:40;;;;;;;3.33;0.95;;;20.40;90.60;;;;;;10363412;28;20111;-62
2021/08/15 00:58:43;;;;;;;2.30;0.82;;;20.30;90.60;;;;;;10356108;28;20119;-62
2021/08/15 01:03:45;;;;;;;4.07;1.90;;;20.30;90.70;;;;;;10360723;28;20580;-61
2021/08/15 01:08:46;;;;;;;4.38;1.00;;;20.20;91.30;;;;;;10365111;28;20728;-61
2021/08/15 01:13:48;;;;;;;6.93;1.17;;;20.10;91.90;;;;;;10359563;28;20172;-62
2021/08/15 01:18:49;;;;;;;6.55;1.40;;;19.90;91.90;;;;;;10361647;28;20085;-61
2021/08/15 01:23:51;;;;;;;5.00;1.23;;;19.70;92.70;;;;;;10362233;28;20104;-61
2021/08/15 01:28:53;;;;;;;2.53;1.20;;;19.60;92.90;;;;;;10367853;28;20464;-61
2021/08/15 01:33:55;;;;;;;3.70;1.20;;;19.50;93.10;;;;;;10360695;28;20046;-61
2021/08/15 01:38:57;;;;;;;5.30;1.00;;;19.30;93.90;;;;;;10367103;28;20068;-61
2021/08/15 01:44:01;;;;;;;3.72;1.10;;;19.10;94.50;;;;;;10367994;28;20045;-62
2021/08/15 01:49:03;;;;;;;3.17;1.30;;;18.90;95.60;;;;;;10362984;28;20124;-62
2021/08/15 01:54:05;;;;;;;3.03;1.10;;;18.70;96.50;;;;;;10367035;28;20104;-61
2021/08/15 01:59:06;;;;;;;2.47;0.90;;;18.60;97.00;;;;;;10355790;28;20111;-61
2021/08/15 02:04:08;;;;;;;3.97;1.63;;;18.30;98.30;;;;;;10357372;28;20085;-61
2021/08/15 02:09:10;;;;;;;4.63;1.40;;;18.30;98.70;;;;;;10360592;28;20065;-61
2021/08/15 02:14:12;;;;;;;3.10;1.42;;;18.30;99.20;;;;;;10353274;28;21211;-61
2021/08/15 02:19:13;;;;;;;4.93;1.30;;;18.30;99.90;;;;;;10370729;28;20057;-61
2021/08/15 02:24:15;;;;;;;6.38;1.45;;;18.20;99.90;;;;;;10369311;28;20049;-61
2021/08/15 02:29:17;;;;;;;4.70;1.52;;;18.20;99.90;;;;;;10363357;28;20127;-61
2021/08/15 02:34:19;;;;;;;7.75;1.67;;;18.10;99.90;;;;;;10362664;28;20073;-62
2021/08/15 02:39:20;;;;;;;5.20;1.35;;;18.10;99.90;;;;;;10367671;28;20050;-61
2021/08/15 02:44:22;;;;;;;4.38;1.30;;;18.00;99.90;;;;;;10364699;28;20700;-61
2021/08/15 02:49:24;;;;;;;3.45;1.65;;;18.00;99.90;;;;;;10365055;28;20076;-61
2021/08/15 02:54:25;;;;;;;5.53;1.63;;;17.90;99.90;;;;;;10365353;28;20076;-61
2021/08/15 02:59:27;;;;;;;8.38;1.85;;;17.80;99.90;;;;;;10361432;28;20061;-61
2021/08/15 03:04:29;;;;;;;11.10;2.15;;;17.80;99.90;;;;;;10364750;28;20517;-61
2021/08/15 03:09:30;;;;;;;5.85;1.88;;;17.70;99.90;;;;;;10370656;28;20136;-61
2021/08/15 03:14:32;;;;;;;4.63;1.67;;;17.70;99.90;;;;;;10362796;28;20050;-61
2021/08/15 03:19:35;;;;;;;4.18;1.95;;;17.70;99.90;;;;;;10363998;28;20058;-61
2021/08/15 03:24:37;;;;;;;5.15;1.40;;;17.60;99.90;;;;;;10365569;28;20072;-61
2021/08/15 03:29:39;;;;;;;8.43;1.83;;;17.50;99.90;;;;;;10359078;28;20495;-61
2021/08/15 03:34:40;;;;;;;8.88;1.90;;;17.50;99.90;;;;;;10369134;28;20049;-62
2021/08/15 03:39:43;;;;;;;5.53;1.95;;;17.50;99.90;;;;;;10365717;28;20053;-61
2021/08/15 03:44:44;;;;;;;6.97;1.60;;;17.30;99.90;;;;;;10363694;28;20455;-61
2021/08/15 03:49:46;;;;;;;5.97;1.83;;;17.20;99.90;;;;;;10358582;28;20099;-61
2021/08/15 03:54:48;;;;;;;7.85;2.00;;;17.10;99.90;;;;;;10362163;28;20045;-61
2021/08/15 03:59:49;;;;;;;6.45;2.63;;;17.00;99.90;;;;;;10359657;28;20056;-61
2021/08/15 04:04:51;;;;;;;4.72;1.65;;;16.90;99.90;;;;;;10363351;28;20172;-61
2021/08/15 04:09:53;;;;;;;3.85;1.85;;;16.80;99.90;;;;;;10360860;28;20049;-61
2021/08/15 04:14:54;;;;;;;3.90;1.83;;;16.70;99.90;;;;;;10359913;28;20050;-62
2021/08/15 04:19:56;;;;;;;5.75;2.22;;;16.70;99.90;;;;;;10362982;28;20049;-62
2021/08/15 04:24:58;;;;;;;4.65;1.98;;;16.60;99.90;;;;;;10363632;28;20487;-61
2021/08/15 04:29:59;;;;;;;8.35;2.50;;;16.50;99.90;;;;;;10359234;28;20089;-61
2021/08/15 04:35:01;;;;;;;5.88;2.25;;;16.40;99.90;;;;;;10360001;28;20139;-62
2021/08/15 04:40:05;;;;;;;5.10;1.80;;;16.40;99.90;;;;;;10363311;28;20108;-62
2021/08/15 04:45:07;;;;;;;4.78;1.60;;;16.30;99.90;;;;;;10357855;28;20132;-61
2021/08/15 04:50:09;;;;;;;3.90;1.90;;;16.30;99.90;;;;;;10361785;28;20072;-61
2021/08/15 04:55:12;;;;;;;5.60;1.98;;;16.30;99.90;;;;;;10359574;28;20069;-62
2021/08/15 05:00:14;;;;;;;5.85;2.75;;;16.40;99.90;;;;;;10355370;28;20108;-61
2021/08/15 05:05:15;;;;;;;7.22;1.60;;;16.40;99.90;;;;;;10360580;28;20053;-61
2021/08/15 05:10:17;;;;;;;6.63;2.58;;;16.40;99.90;;;;;;10360418;28;20108;-61
2021/08/15 05:15:19;;;;;;;8.73;2.33;;;16.40;99.90;;;;;;10361151;28;20050;-62
2021/08/15 05:20:20;;;;;;;6.97;2.10;;;16.50;99.90;;;;;;10362371;28;20115;-62
2021/08/15 05:25:23;;;;;;;6.07;1.98;;;16.50;99.90;;;;;;10358593;28;20049;-62
2021/08/15 05:30:24;;;;;;;4.18;1.67;;;16.50;99.90;;;;;;10354073;28;20559;-62
2021/08/15 05:35:26;;;;;;;7.07;2.20;;;16.60;99.90;;;;;;10356409;28;20053;-61
2021/08/15 05:40:28;;;;;;;5.82;2.25;;;16.70;99.90;;;;;;10360063;28;20499;-61
2021/08/15 05:45:30;;;;;;;7.22;2.28;;;16.80;99.90;;;;;;10365021;28;20053;-61
2021/08/15 05:50:32;;;;;;;7.38;2.00;;;16.90;99.90;;;;;;10365767;28;20069;-62
2021/08/15 05:55:33;;;;;;;5.35;1.85;;;17.00;99.90;;;;;;10375096;28;20073;-62
2021/08/15 06:00:35;;;;;;;6.78;2.15;;;17.10;99.90;;;;;;10362025;28;20438;-62
2021/08/15 06:05:38;;;;;;;10.13;1.88;;;17.30;99.90;;;;;;10369704;28;20045;-62
2021/08/15 06:10:40;;;;;;;6.78;2.28;;;17.40;99.90;;;;;;10366576;28;20093;-61
2021/08/15 06:15:41;;;;;;;8.85;2.30;;;17.50;99.90;;;;;;10365020;28;20054;-61
2021/08/15 06:20:43;;;;;;;11.18;3.17;;;17.60;99.90;;;;;;10368359;28;20077;-62
2021/08/15 06:25:45;;;;;;;8.93;1.88;;;17.80;99.90;;;;;;10366892;28;20082;-61
2021/08/15 06:30:46;;;;;;;6.00;2.45;;;17.90;99.90;;;;;;10365805;28;20081;-62
2021/08/15 06:35:51;;;;;;;8.93;1.83;;;18.10;99.90;;;;;;10371207;28;20046;-62
2021/08/15 06:40:53;;;;;;;3.63;1.80;;;18.20;99.90;;;;;;10364832;28;20112;-62
2021/08/15 06:45:55;;;;;;;5.20;2.17;;;18.40;99.90;;;;;;10364361;28;20068;-63
2021/08/15 06:50:58;;;;;;;6.05;1.95;;;18.50;99.90;;;;;;10364473;28;20061;-63
2021/08/15 06:56:01;;;;;;;8.35;2.67;;;18.70;99.90;;;;;;10362236;28;20137;-63
2021/08/15 07:01:04;;;;;;;13.25;2.28;;;18.90;99.90;;;;;;10360910;28;20546;-64
2021/08/15 07:06:05;;;;;;;5.82;1.88;;;19.00;99.90;;;;;;10365170;28;20446;-63
2021/08/15 07:11:07;;;;;;;4.88;1.40;;;19.20;99.90;;;;;;10377044;28;20053;-63
2021/08/15 07:16:09;;;;;;;6.05;1.92;;;19.40;99.90;;;;;;10363451;28;20102;-63
2021/08/15 07:21:11;;;;;;;8.05;2.08;;;19.50;99.90;;;;;;10362250;28;20057;-63
2021/08/15 07:26:12;;;;;;;8.82;2.10;;;19.70;99.90;;;;;;10358126;28;20452;-63
2021/08/15 07:31:14;;;;;;;4.97;1.55;;;20.00;99.90;;;;;;10353716;28;20093;-63
2021/08/15 07:36:16;;;;;;;6.32;2.08;;;20.10;99.90;;;;;;10355486;28;20045;-63
2021/08/15 07:41:17;;;;;;;6.60;1.92;;;20.30;99.90;;;;;;10371818;28;20135;-63
2021/08/15 07:46:19;;;;;;;6.57;2.30;;;20.40;99.90;;;;;;10361374;28;20366;-63
2021/08/15 07:51:21;;;;;;;8.35;2.28;;;20.70;99.90;;;;;;10362256;28;20135;-63
2021/08/15 07:56:23;;;;;;;5.32;1.75;;;20.90;99.90;;;;;;10356816;28;20068;-63
2021/08/15 08:01:24;;;;;;;6.90;2.10;;;21.00;99.90;;;;;;10362464;28;20050;-63
2021/08/15 08:06:27;;;;;;;12.90;3.30;;;21.20;99.90;;;;;;10360952;28;20114;-63
2021/08/15 08:11:28;;;;;;;7.35;1.60;;;21.30;99.90;;;;;;10360597;28;20042;-63
2021/08/15 08:16:30;;;;;;;8.73;2.22;;;21.40;99.90;;;;;;10359693;28;20049;-63
2021/08/15 08:21:32;;;;;;;15.02;2.58;;;21.60;99.90;;;;;;10368321;28;20046;-65
2021/08/15 08:26:33;;;;;;;6.50;2.20;;;21.70;99.90;;;;;;10360965;28;20500;-65
2021/08/15 08:31:35;;;;;;;9.48;2.05;;;22.00;99.90;;;;;;10357427;28;20123;-64
2021/08/15 08:36:37;;;;;;;6.55;2.00;;;22.00;99.90;;;;;;10357612;28;20495;-64
2021/08/15 08:41:39;;;;;;;11.18;1.90;;;22.20;99.90;;;;;;10355312;28;20103;-65
2021/08/15 08:46:42;;;;;;;6.47;2.00;;;22.30;99.10;;;;;;10354844;28;20093;-65
2021/08/15 08:51:46;;;;;;;7.00;1.40;;;22.80;98.40;;;;;;10359760;28;20107;-64
2021/08/15 08:56:59;;;;;;;3.53;1.10;;;23.10;96.70;;;;;;10354564;28;20456;-63
2021/08/15 09:02:00;;;;;;;4.25;1.40;;;23.30;93.20;;;;;;10360087;28;20612;-64
2021/08/15 09:07:20;;;;;;;8.15;1.40;;;23.50;92.20;;;;;;10366244;28;20527;-65
2021/08/15 09:12:51;;;;;;;3.72;1.08;;;23.70;91.00;;;;;;10360788;28;20077;-64
2021/08/15 09:17:54;;;;;;;3.55;0.80;;;23.80;90.40;;;;;;10358398;28;20034;-65
2021/08/15 09:22:56;;;;;;;4.25;0.50;;;23.90;86.60;;;;;;10360434;28;20042;-65
2021/08/15 09:27:58;;;;;;;1.77;0.50;;;23.50;86.10;;;;;;10354833;28;20054;-63
2021/08/15 09:33:05;;;;;;;1.52;0.60;;;23.90;85.40;;;;;;10367607;28;20057;-64
2021/08/15 09:38:10;;;;;;;2.45;0.50;;;24.20;87.20;;;;;;10357824;28;20054;-64
2021/08/15 09:43:24;;;;;;;3.28;0.45;;;24.50;84.50;;;;;;10359184;28;20046;-64
2021/08/15 09:48:42;;;;;;;2.95;0.52;;;24.70;81.20;;;;;;10363080;28;20053;-64
2021/08/15 09:53:59;;;;;;;1.67;0.60;;;24.90;82.00;;;;;;10359087;28;20061;-63
2021/08/15 09:59:14;;;;;;;1.65;0.55;;;25.10;79.10;;;;;;10358887;28;20045;-66
2021/08/15 10:04:17;;;;;;;2.00;0.67;;;24.90;79.70;;;;;;10357879;28;20049;-66
2021/08/15 10:09:20;;;;;;;2.22;1.00;;;25.00;80.00;;;;;;10359846;28;20073;-66
2021/08/15 10:14:22;;;;;;;3.03;0.82;;;25.50;82.60;;;;;;10384177;28;65669;-67
2021/08/15 10:19:37;;;;;;;3.80;0.80;;;25.80;81.10;;;;;;10400476;28;20061;-66
2021/08/15 10:24:48;;;;;;;3.33;0.65;;;26.10;78.20;;;;;;10405406;28;20050;-67
2021/08/15 10:29:54;;;;;;;2.58;0.70;;;26.30;77.80;;;;;;10405535;28;20511;-67
2021/08/15 10:34:57;;;;;;;3.15;0.73;;;26.00;75.90;;;;;;10395471;28;20053;-66
2021/08/15 10:40:03;;;;;;;1.40;0.60;;;26.50;74.20;;;;;;10411195;28;20403;-66
2021/08/15 10:45:10;;;;;;;2.65;0.90;;;26.70;69.90;;;;;;10411906;28;20045;-62
2021/08/15 10:50:15;;;;;;;2.15;0.80;;;26.40;69.50;;;;;;10406078;28;20431;-61
2021/08/15 10:55:18;;;;;;;3.53;0.68;;;27.00;68.80;;;;;;10416575;28;20485;-62
2021/08/15 11:00:29;;;;;;;1.90;0.93;;;27.40;68.00;;;;;;10423400;28;20044;-62
2021/08/15 11:05:36;;;;;;;3.70;0.75;;;27.20;69.10;;;;;;10406197;28;20046;-61
2021/08/15 11:11:08;;;;;;;3.10;0.77;;;27.40;74.10;;;;;;10410087;28;20094;-61
2021/08/15 11:16:27;;;;;;;1.45;0.70;;;27.80;66.00;;;;;;10406699;28;20527;-61
2021/08/15 11:22:06;;;;;;;1.90;0.75;;;27.50;66.30;;;;;;10406702;28;20150;-62
2021/08/15 11:27:08;;;;;;;1.58;0.65;;;27.70;66.20;;;;;;10404413;28;20106;-61
2021/08/15 11:32:16;;;;;;;3.25;1.90;;;27.40;65.60;;;;;;10403235;28;20060;-62
2021/08/15 11:37:19;;;;;;;1.45;0.60;;;28.50;64.90;;;;;;10407820;28;20069;-63
2021/08/15 11:42:24;;;;;;;39.40;28.20;;;28.40;62.20;;;;;;10405748;28;20119;-60
2021/08/15 11:47:27;;;;;;;;;;;29.10;60.80;;;;;;10406926;28;20111;-60
2021/08/15 11:52:36;;;;;;;2.22;0.98;;;29.30;57.40;;;;;;10410611;28;19952;-64
2021/08/15 11:57:52;;;;;;;3.35;1.67;;;29.00;59.30;;;;;;10405723;28;20454;-64
2021/08/15 12:03:00;;;;;;;1.48;0.60;;;29.20;64.60;;;;;;10410712;28;20053;-63
2021/08/15 12:08:07;;;;;;;2.08;0.55;;;29.10;60.20;;;;;;10409188;28;20072;-62
2021/08/15 12:13:10;;;;;;;3.05;0.55;;;28.90;60.20;;;;;;10405939;28;20061;-62
2021/08/15 12:18:39;;;;;;;1.65;0.50;;;28.60;60.40;;;;;;10404631;28;20557;-58
2021/08/15 12:24:03;;;;;;;1.10;0.32;;;28.70;60.30;;;;;;10402985;28;20745;-58
2021/08/15 12:29:18;;;;;;;2.28;0.60;;;28.80;61.10;;;;;;10400600;28;20114;-60
2021/08/15 12:34:20;;;;;;;1.83;0.57;;;28.70;60.40;;;;;;10405747;28;20138;-58
2021/08/15 12:39:28;;;;;;;1.40;0.60;;;29.40;59.50;;;;;;10402618;28;20045;-58
2021/08/15 12:44:57;;;;;;;2.20;0.40;;;29.40;59.90;;;;;;10399536;28;20092;-58
2021/08/15 12:50:07;;;;;;;2.35;0.50;;;29.90;57.30;;;;;;10399419;28;20045;-59
2021/08/15 12:55:12;;;;;;;0.70;0.30;;;29.50;60.70;;;;;;10400301;28;20052;-59
2021/08/15 13:00:17;;;;;;;;;;;28.80;57.60;;;;;;10404655;28;20067;-59
2021/08/15 13:05:20;;;;;;;1.15;0.50;;;29.30;58.20;;;;;;10404277;28;20351;-59
2021/08/15 13:10:23;;;;;;;2.22;0.30;;;29.20;59.30;;;;;;10403120;28;20060;-58
2021/08/15 13:15:25;;;;;;;2.25;1.08;;;29.70;57.50;;;;;;10399484;28;20380;-58
2021/08/15 13:20:29;;;;;;;1.48;0.40;;;30.00;59.70;;;;;;10399758;28;20141;-58
2021/08/15 13:25:31;;;;;;;1.67;0.52;;;29.90;58.90;;;;;;10398406;28;20045;-59
2021/08/15 13:30:33;;;;;;;1.80;0.50;;;30.10;58.90;;;;;;10406725;28;20076;-59
2021/08/15 13:35:35;;;;;;;1.27;0.47;;;30.20;57.40;;;;;;10404421;28;20471;-59
2021/08/15 13:40:37;;;;;;;1.10;0.43;;;30.00;57.70;;;;;;10402562;28;20084;-59
2021/08/15 13:45:39;;;;;;;4.10;0.47;;;30.20;58.80;;;;;;10404528;28;20445;-59
2021/08/15 13:50:41;;;;;;;2.25;0.60;;;30.20;59.30;;;;;;10402030;28;20076;-59
2021/08/15 13:55:44;;;;;;;1.25;0.40;;;29.50;57.80;;;;;;10404097;28;20380;-59
2021/08/15 14:00:50;;;;;;;0.82;0.50;;;29.60;59.50;;;;;;10402340;28;20107;-60
2021/08/15 14:05:52;;;;;;;2.95;0.60;;;29.40;57.70;;;;;;10403477;28;20449;-58
2021/08/15 14:10:54;;;;;;;3.00;0.90;;;30.00;61.10;;;;;;10403349;28;20049;-58
2021/08/15 14:15:56;;;;;;;1.25;0.43;;;30.10;60.90;;;;;;10406375;28;20045;-60
2021/08/15 14:20:59;;;;;;;2.35;0.50;;;30.20;57.70;;;;;;10402413;28;20465;-61
2021/08/15 14:26:01;;;;;;;1.35;0.40;;;30.20;61.20;;;;;;10421212;28;20131;-63
2021/08/15 14:31:02;;;;;;;1.80;0.40;;;30.20;58.10;;;;;;10409797;28;20081;-60
2021/08/15 14:36:05;;;;;;;3.78;0.55;;;30.30;57.10;;;;;;10406668;28;20041;-61
2021/08/15 14:41:06;;;;;;;0.95;0.40;;;30.20;57.80;;;;;;10407824;28;20097;-59
2021/08/15 14:46:08;;;;;;;1.52;0.40;;;31.00;56.20;;;;;;10410307;28;20302;-59
2021/08/15 14:51:10;;;;;;;2.00;0.40;;;30.30;56.50;;;;;;10402428;28;20040;-59
2021/08/15 14:56:12;;;;;;;2.20;0.70;;;30.70;56.10;;;;;;10408661;28;20048;-57
2021/08/15 15:01:13;;;;;;;1.73;0.60;;;31.20;54.90;;;;;;10407465;28;20099;-56
2021/08/15 15:06:16;;;;;;;3.25;0.60;;;31.60;55.20;;;;;;10409040;28;20136;-58
2021/08/15 15:11:18;;;;;;;1.00;0.50;;;32.00;58.00;;;;;;10404202;28;20077;-58
2021/08/15 15:16:20;;;;;;;0.68;0.40;;;31.60;54.30;;;;;;10412385;28;20079;-56
2021/08/15 15:21:22;;;;;;;1.17;0.50;;;31.10;54.40;;;;;;10405698;28;20049;-57
2021/08/15 15:26:23;;;;;;;2.30;0.50;;;31.20;54.70;;;;;;10410132;28;20454;-56
2021/08/15 15:31:25;;;;;;;1.00;0.40;;;31.10;54.40;;;;;;10405373;28;20178;-55
2021/08/15 15:36:26;;;;;;;1.65;0.90;;;31.00;55.60;;;;;;10403988;28;20080;-57
2021/08/15 15:41:28;;;;;;;2.00;0.70;;;30.60;58.20;;;;;;10410400;28;20045;-57
2021/08/15 15:46:31;;;;;;;1.92;0.40;;;30.60;56.80;;;;;;10408479;28;20117;-57
2021/08/15 15:51:34;;;;;;;2.13;0.40;;;30.60;57.80;;;;;;10400551;28;20068;-57
2021/08/15 15:56:36;;;;;;;2.20;0.50;;;30.50;55.70;;;;;;10409560;28;20053;-57
2021/08/15 16:01:38;;;;;;;0.73;0.32;;;30.10;55.20;;;;;;10409303;28;20052;-57
2021/08/15 16:06:40;;;;;;;0.95;0.40;;;29.70;56.80;;;;;;10404253;28;20171;-55
2021/08/15 16:11:42;;;;;;;1.88;0.40;;;29.50;56.80;;;;;;10408099;28;20049;-57
2021/08/15 16:16:44;;;;;;;2.28;0.45;;;29.40;56.10;;;;;;10409789;28;20187;-68
2021/08/15 16:21:46;;;;;;;2.22;0.88;;;29.20;59.90;;;;;;10406261;28;20141;-67
2021/08/15 16:26:48;;;;;;;2.08;0.60;;;29.20;59.70;;;;;;10404293;28;20052;-69
2021/08/15 16:31:50;;;;;;;1.73;0.88;;;29.20;60.30;;;;;;10409301;28;20130;-68
2021/08/15 16:36:51;;;;;;;1.27;0.40;;;29.30;60.20;;;;;;10405210;28;20132;-66
2021/08/15 16:41:53;;;;;;;4.47;1.00;;;29.30;59.60;;;;;;10407834;28;20080;-69
2021/08/15 16:46:56;;;;;;;2.33;0.70;;;29.40;60.70;;;;;;10407589;28;20656;-69
2021/08/15 16:51:58;;;;;;;3.60;0.70;;;29.30;59.60;;;;;;10403470;28;20045;-69
2021/08/15 16:57:01;;;;;;;1.48;0.68;;;29.20;60.40;;;;;;10410742;28;20589;-69
2021/08/15 17:02:03;;;;;;;2.78;1.20;;;29.20;60.40;;;;;;10406791;28;20048;-70
2021/08/15 17:07:05;;;;;;;3.80;0.88;;;29.10;61.10;;;;;;10400376;28;20475;-69
2021/08/15 17:12:07;;;;;;;0.93;0.50;;;29.30;60.70;;;;;;10410863;28;20048;-69
2021/08/15 17:17:09;;;;;;;3.92;0.40;;;29.40;60.70;;;;;;10402174;28;20057;-69
2021/08/15 17:22:11;;;;;;;1.90;0.60;;;29.40;59.20;;;;;;10424816;28;20065;-68
2021/08/15 17:27:13;;;;;;;1.50;0.88;;;29.40;59.60;;;;;;10410397;28;20054;-68
2021/08/15 17:32:15;;;;;;;3.65;0.50;;;29.20;60.10;;;;;;10402801;28;20054;-68
2021/08/15 17:37:17;;;;;;;3.22;0.38;;;29.00;59.60;;;;;;10400562;28;20049;-68
2021/08/15 17:42:18;;;;;;;5.05;0.80;;;28.80;60.50;;;;;;10404952;28;20053;-67
2021/08/15 17:47:20;;;;;;;1.92;0.60;;;28.70;61.40;;;;;;10407275;28;20053;-69
2021/08/15 17:52:22;;;;;;;3.75;0.40;;;28.30;62.70;;;;;;10410745;28;20054;-69
2021/08/15 17:57:24;;;;;;;2.30;0.80;;;28.10;64.60;;;;;;10421886;28;20434;-68
2021/08/15 18:02:25;;;;;;;1.73;0.50;;;27.70;66.50;;;;;;10410595;28;20060;-70
2021/08/15 18:07:27;;;;;;;2.45;0.60;;;27.60;67.30;;;;;;10409929;28;20114;-69
2021/08/15 18:12:29;;;;;;;2.78;0.47;;;27.30;68.40;;;;;;10414684;28;20384;-68
2021/08/15 18:17:32;;;;;;;1.70;0.30;;;27.00;66.60;;;;;;10412628;28;20041;-70
2021/08/15 18:22:34;;;;;;;4.40;1.52;;;26.70;68.80;;;;;;10406627;28;20045;-70
2021/08/15 18:27:36;;;;;;;2.75;0.60;;;26.40;70.30;;;;;;10406367;28;20127;-69
2021/08/15 18:32:39;;;;;;;5.47;0.70;;;26.30;70.60;;;;;;10407173;28;20051;-70
2021/08/15 18:37:41;;;;;;;4.32;0.60;;;26.20;71.80;;;;;;10402016;28;20049;-68
2021/08/15 18:42:43;;;;;;;5.07;1.40;;;25.90;72.40;;;;;;10409693;28;20099;-68
2021/08/15 18:47:45;;;;;;;5.47;0.80;;;25.50;73.60;;;;;;10407039;28;20107;-68
2021/08/15 18:52:48;;;;;;;10.70;2.83;;;25.30;74.00;;;;;;10404225;28;20045;-69
2021/08/15 18:57:50;;;;;;;11.27;1.98;;;25.20;76.90;;;;;;10407047;28;20072;-69
2021/08/15 19:02:53;;;;;;;7.97;1.10;;;24.90;78.00;;;;;;10392248;28;20045;-69
2021/08/15 19:07:55;;;;;;;7.28;0.93;;;24.50;76.60;;;;;;10397578;28;20060;-64
2021/08/15 19:12:58;;;;;;;2.28;0.60;;;24.40;77.80;;;;;;10407192;28;20151;-64
2021/08/15 19:18:00;;;;;;;8.07;1.38;;;24.40;78.90;;;;;;10400452;28;20087;-64
2021/08/15 19:23:03;;;;;;;8.20;1.70;;;24.20;82.40;;;;;;10406253;28;20483;-63
2021/08/15 19:28:06;;;;;;;6.70;1.20;;;24.00;84.30;;;;;;10404119;28;20056;-64
2021/08/15 19:33:08;;;;;;;8.30;1.70;;;23.80;85.90;;;;;;10411867;28;20056;-64
2021/08/15 19:38:09;;;;;;;10.38;1.15;;;23.50;88.20;;;;;;10407271;28;20111;-64
2021/08/15 19:43:11;;;;;;;3.80;1.55;;;23.40;88.70;;;;;;10404227;28;20076;-65
2021/08/15 19:48:14;;;;;;;4.25;0.68;;;23.30;88.40;;;;;;10404986;28;20080;-61
2021/08/15 19:53:16;;;;;;;3.72;0.70;;;23.10;87.10;;;;;;10401978;28;20052;-63
2021/08/15 19:58:17;;;;;;;1.45;0.50;;;22.70;88.70;;;;;;10404790;28;20053;-63
2021/08/15 20:03:19;;;;;;;2.10;0.50;;;22.60;89.90;;;;;;10404859;28;20056;-63
2021/08/15 20:08:21;;;;;;;5.50;0.70;;;22.50;90.90;;;;;;10404814;28;20045;-63
2021/08/15 20:13:23;;;;;;;8.00;0.82;;;22.40;91.80;;;;;;10408321;28;20550;-64
2021/08/15 20:18:26;;;;;;;2.10;0.55;;;22.30;92.40;;;;;;10401259;28;20053;-64
2021/08/15 20:23:28;;;;;;;6.82;1.20;;;22.20;93.50;;;;;;10404231;28;20051;-64
2021/08/15 20:28:30;;;;;;;7.13;1.10;;;22.10;94.60;;;;;;10405203;28;20045;-63
2021/08/15 20:33:32;;;;;;;11.90;0.90;;;21.80;95.70;;;;;;10411646;28;20087;-63
2021/08/15 20:38:34;;;;;;;3.33;0.52;;;21.70;96.80;;;;;;10396095;28;20049;-63
2021/08/15 20:43:42;;;;;;;4.53;2.00;;;21.50;97.30;;;;;;10404710;28;20076;-62
2021/08/15 20:48:44;;;;;;;3.50;0.88;;;21.40;98.30;;;;;;10408437;28;20479;-62
2021/08/15 20:53:45;;;;;;;10.95;0.80;;;21.30;99.00;;;;;;10404955;28;20551;-62
2021/08/15 20:58:47;;;;;;;2.67;0.80;;;21.20;99.90;;;;;;10406321;28;20045;-63
2021/08/15 21:03:49;;;;;;;7.03;0.80;;;21.20;99.90;;;;;;10401535;28;20057;-63
2021/08/15 21:08:50;;;;;;;4.03;0.73;;;21.10;99.90;;;;;;10405235;28;20499;-63
2021/08/15 21:13:52;;;;;;;2.42;0.60;;;21.00;99.90;;;;;;10403913;28;20577;-63
2021/08/15 21:18:54;;;;;;;2.25;0.70;;;20.80;99.90;;;;;;10397836;28;20095;-63
2021/08/15 21:23:55;;;;;;;11.60;0.98;;;20.80;99.90;;;;;;10402146;28;20049;-63
2021/08/15 21:28:58;;;;;;;2.17;0.77;;;20.70;99.90;;;;;;10406191;28;20947;-63
2021/08/15 21:34:02;;;;;;;3.33;0.80;;;20.60;99.90;;;;;;10401525;28;20060;-63
2021/08/15 21:39:04;;;;;;;2.13;1.17;;;20.50;99.90;;;;;;10401336;28;20049;-63
2021/08/15 21:44:06;;;;;;;1.27;0.70;;;20.30;99.90;;;;;;10407531;28;20049;-63
2021/08/15 21:49:08;;;;;;;7.50;0.85;;;20.30;99.90;;;;;;10397741;28;20045;-63
2021/08/15 21:54:09;;;;;;;1.52;0.57;;;20.20;99.90;;;;;;10406986;28;20129;-63
2021/08/15 21:59:11;;;;;;;1.85;0.70;;;20.30;99.90;;;;;;10404925;28;20480;-63
2021/08/15 22:04:13;;;;;;;3.65;0.80;;;20.30;99.90;;;;;;10398956;28;20156;-63
2021/08/15 22:09:14;;;;;;;3.05;0.70;;;20.30;99.90;;;;;;10406240;28;20121;-63
2021/08/15 22:14:17;;;;;;;1.20;0.52;;;20.10;99.90;;;;;;10401938;28;20098;-63
2021/08/15 22:19:20;;;;;;;3.38;0.90;;;20.20;99.90;;;;;;10397043;28;20127;-63
2021/08/15 22:24:22;;;;;;;4.70;0.88;;;20.30;99.90;;;;;;10403870;28;20107;-63
2021/08/15 22:29:24;;;;;;;3.08;0.85;;;20.30;99.90;;;;;;10404059;28;20113;-63
2021/08/15 22:34:25;;;;;;;4.30;0.60;;;20.20;99.90;;;;;;10407300;28;20597;-63
2021/08/15 22:39:27;;;;;;;3.72;0.50;;;20.30;99.90;;;;;;10412272;28;20387;-63
2021/08/15 22:44:29;;;;;;;3.65;1.38;;;20.30;99.90;;;;;;10409877;28;20049;-63
2021/08/15 22:49:30;;;;;;;2.25;0.65;;;20.40;99.90;;;;;;10404467;28;20065;-63
2021/08/15 22:54:32;;;;;;;3.53;0.60;;;20.50;99.90;;;;;;10408735;28;20081;-63
2021/08/15 22:59:34;;;;;;;2.80;0.60;;;20.50;99.90;;;;;;10411717;28;20098;-63
2021/08/15 23:04:36;;;;;;;2.53;0.70;;;20.40;99.90;;;;;;10406190;28;20044;-63
2021/08/15 23:09:39;;;;;;;3.72;0.60;;;20.50;99.90;;;;;;10410399;28;20061;-63
2021/08/15 23:14:40;;;;;;;5.28;0.75;;;20.50;99.90;;;;;;10407549;28;20430;-63
2021/08/15 23:19:42;;;;;;;1.60;0.50;;;20.50;99.90;;;;;;10408790;28;20045;-62
2021/08/15 23:24:44;;;;;;;1.98;0.50;;;20.50;99.90;;;;;;10411843;28;20080;-63
2021/08/15 23:29:46;;;;;;;2.45;0.60;;;20.50;99.90;;;;;;10409378;28;20050;-63
2021/08/15 23:34:48;;;;;;;1.23;0.50;;;20.40;99.90;;;;;;10410472;28;20143;-63
2021/08/15 23:39:49;;;;;;;2.22;0.80;;;20.40;99.90;;;;;;10412905;28;20115;-63
2021/08/15 23:44:51;;;;;;;1.45;0.70;;;20.50;99.90;;;;;;10407775;28;20041;-63
2021/08/15 23:49:53;;;;;;;1.95;0.70;;;20.50;99.90;;;;;;10405660;28;20056;-63
2021/08/15 23:54:55;;;;;;;3.63;1.17;;;20.40;99.90;;;;;;10410151;28;20052;-64
2021/08/15 23:59:57;;;;;;;2.80;0.80;;;20.40;99.90;;;;;;10405490;28;20407;-63
